Accueil
METAR-TAF:

METAR-TAF

Aéroports :

Charleroi, Belgique

Aéroport de Charleroi-Bruxelles-Sud

latitude: 50-28N, longitude: 004-27E, altitude: 187 m

Observation

Le bulletin a été fait il y a 30 minutes, à 21:20 UTC
Vent 2 kt de est
Température 6°C
Humidité 65%
Pression 1024 hPa
Visibilité 10 km ou plus
pas de nuages en-dessous de 1500 mètres et pas de cumulonimbus.

METAR: EBCI 232120Z 08002KT CAVOK 06/M00 Q1024 NOSIG

Heure: 23:50 (21:50 UTC)

Prévision

Le bulletin a été fait il y a 4 heures et 50 minutes, à 17:00 UTC
Prévision valable du 23 à 18 UTC au 24 à 24 UTC
Vent 5 kt de nord/nord-est
Visibilité 10 km ou plus
Nuages épars à une hauteur de 4000 ft

TAF: EBCI 231700Z 2318/2424 03005KT 9999 SCT040

Observations et prévisions météorologiques de plus de 4000 aéroports (messages METAR et TAF).

Les stations disponibles sont représentées par des disques jaunes et rouges sur la carte.

Passer la souris dessus pour voir le nom de la station.

Cliquer dessus pour voir les observations et prévisions météorologiques.

Pour changer de carte: cliquez sur les boutons verts avec une croix noire pour zoomer, sur le bouton vert avec un tiret pour effectuer un zoom arrière, ou sur les flèches vertes pour les cartes adjacentes.


METAR-TAF: